createdAt,value
2023-04-22T00:00:29.220Z,11.20
2023-04-22T00:02:57.464Z,11.20
2023-04-22T00:05:26.638Z,11.20
2023-04-22T00:07:54.843Z,11.10
2023-04-22T00:10:23.640Z,11.10
2023-04-22T00:12:51.759Z,11.10
2023-04-22T00:15:22.507Z,11.10
2023-04-22T00:17:51.938Z,11.00
2023-04-22T00:20:22.185Z,11.00
2023-04-22T00:22:50.215Z,11.00
2023-04-22T00:25:19.239Z,11.00
2023-04-22T00:27:47.324Z,11.00
2023-04-22T00:30:16.573Z,10.90
2023-04-22T00:32:44.647Z,10.90
2023-04-22T00:35:14.528Z,10.90
2023-04-22T00:37:42.602Z,10.90
2023-04-22T00:40:11.693Z,10.90
2023-04-22T00:42:40.137Z,10.90
2023-04-22T00:45:11.561Z,10.90
2023-04-22T00:47:39.621Z,10.90
2023-04-22T00:50:09.157Z,10.80
2023-04-22T00:52:38.503Z,10.80
2023-04-22T00:55:07.650Z,10.80
2023-04-22T00:57:36.769Z,10.80
2023-04-22T01:00:05.940Z,10.80
2023-04-22T01:02:34.722Z,10.80
2023-04-22T01:05:03.537Z,10.80
2023-04-22T01:07:31.878Z,10.80
2023-04-22T01:10:01.527Z,10.80
2023-04-22T01:12:30.099Z,10.80
2023-04-22T01:14:58.173Z,10.80
2023-04-22T01:17:26.307Z,10.80
2023-04-22T01:19:55.702Z,10.80
2023-04-22T01:22:24.051Z,10.80
2023-04-22T01:24:53.431Z,10.80
2023-04-22T01:27:22.040Z,10.80
2023-04-22T01:29:50.026Z,10.80
2023-04-22T01:32:18.471Z,10.80
2023-04-22T01:34:46.832Z,10.80
2023-04-22T01:37:15.588Z,10.80
2023-04-22T01:39:43.577Z,10.80
2023-04-22T01:42:13.316Z,10.80
2023-04-22T01:44:41.857Z,10.80
2023-04-22T01:47:10.308Z,10.70
2023-04-22T01:49:39.038Z,10.70
2023-04-22T01:52:07.548Z,10.70
2023-04-22T01:54:36.206Z,10.70
2023-04-22T01:57:10.035Z,10.70
2023-04-22T01:59:40.388Z,10.60
2023-04-22T02:02:09.247Z,10.60
2023-04-22T02:04:37.813Z,10.60
2023-04-22T02:07:07.148Z,10.60
2023-04-22T02:09:38.762Z,10.60
2023-04-22T02:12:07.845Z,10.60
2023-04-22T02:14:36.239Z,10.60
2023-04-22T02:17:05.961Z,10.60
2023-04-22T02:19:34.435Z,10.60
2023-04-22T02:22:02.923Z,10.60
2023-04-22T02:24:31.498Z,10.60
2023-04-22T02:27:00.309Z,10.60
2023-04-22T02:29:29.448Z,10.50
2023-04-22T02:31:59.381Z,10.60
2023-04-22T02:34:29.088Z,10.60
2023-04-22T02:36:57.065Z,10.60
2023-04-22T02:39:26.254Z,10.50
2023-04-22T02:41:54.656Z,10.40
2023-04-22T02:44:22.835Z,10.40
2023-04-22T02:46:50.940Z,10.40
2023-04-22T02:49:19.370Z,10.40
2023-04-22T02:51:48.764Z,10.30
2023-04-22T02:54:17.184Z,10.30
2023-04-22T02:56:46.049Z,10.30
2023-04-22T02:59:14.362Z,10.30
2023-04-22T03:01:42.421Z,10.30
2023-04-22T03:04:16.420Z,10.30
2023-04-22T03:06:45.096Z,10.30
2023-04-22T03:09:14.819Z,10.30
2023-04-22T03:11:42.840Z,10.30
2023-04-22T03:14:11.443Z,10.30
2023-04-22T03:16:40.274Z,10.30
2023-04-22T03:19:08.747Z,10.20
2023-04-22T03:21:36.717Z,10.20
2023-04-22T03:24:05.996Z,10.20
2023-04-22T03:26:37.038Z,10.20
2023-04-22T03:29:05.401Z,10.10
2023-04-22T03:31:33.565Z,10.10
2023-04-22T03:34:02.354Z,10.10
2023-04-22T03:36:32.415Z,10.20
2023-04-22T03:39:00.981Z,10.20
2023-04-22T03:41:31.229Z,10.10
2023-04-22T03:44:02.092Z,10.10
2023-04-22T03:46:31.582Z,10.10
2023-04-22T03:49:17.058Z,10.10
2023-04-22T03:51:45.701Z,10.00
2023-04-22T03:54:18.708Z,10.00
2023-04-22T03:56:50.891Z,10.00
2023-04-22T03:59:23.310Z,10.00
2023-04-22T04:01:52.448Z,10.00
2023-04-22T04:04:24.667Z,9.90
2023-04-22T04:06:58.012Z,10.00
2023-04-22T04:09:28.194Z,10.00
2023-04-22T04:11:56.710Z,10.00
2023-04-22T04:14:26.494Z,10.00
2023-04-22T04:16:54.957Z,9.90
2023-04-22T04:19:32.137Z,9.90
2023-04-22T04:22:01.939Z,9.80
2023-04-22T04:24:36.658Z,9.80
2023-04-22T04:27:12.518Z,9.80
2023-04-22T04:29:49.795Z,9.80
2023-04-22T04:32:27.089Z,9.90
2023-04-22T04:34:58.058Z,9.90
2023-04-22T04:37:27.186Z,9.90
2023-04-22T04:40:02.821Z,10.00
2023-04-22T04:42:43.877Z,10.00
2023-04-22T04:45:20.489Z,10.10
2023-04-22T04:47:50.646Z,10.10
2023-04-22T04:50:24.570Z,10.10
2023-04-22T04:52:52.970Z,10.20
2023-04-22T04:55:27.557Z,10.20
2023-04-22T04:57:56.389Z,10.20
2023-04-22T05:00:26.026Z,10.30
2023-04-22T05:02:54.954Z,10.30
2023-04-22T05:05:23.315Z,10.40
2023-04-22T05:07:51.803Z,10.60
2023-04-22T05:10:20.544Z,10.80
2023-04-22T05:12:48.954Z,11.00
2023-04-22T05:15:22.287Z,11.20
2023-04-22T05:17:52.098Z,11.40
2023-04-22T05:20:20.516Z,11.50
2023-04-22T05:22:49.161Z,11.70
2023-04-22T05:25:18.054Z,11.90
2023-04-22T05:27:55.056Z,12.00
2023-04-22T05:30:25.114Z,12.30
2023-04-22T05:32:54.497Z,12.60
2023-04-22T05:35:22.897Z,12.80
2023-04-22T05:37:51.208Z,12.90
2023-04-22T05:40:19.401Z,13.00
2023-04-22T05:42:47.658Z,13.10
2023-04-22T05:45:15.921Z,13.40
2023-04-22T05:47:44.415Z,13.50
2023-04-22T05:50:13.956Z,13.60
2023-04-22T05:53:08.709Z,13.80
2023-04-22T05:55:36.689Z,14.00
2023-04-22T05:58:08.174Z,14.20
2023-04-22T06:00:55.868Z,14.50
2023-04-22T06:03:42.978Z,14.50
2023-04-22T06:06:14.573Z,14.70
2023-04-22T06:08:42.961Z,14.80
2023-04-22T06:11:12.017Z,14.80
2023-04-22T06:13:40.332Z,14.80
2023-04-22T06:16:09.996Z,14.90
2023-04-22T06:18:38.705Z,15.20
2023-04-22T06:21:11.020Z,15.40
2023-04-22T06:23:40.638Z,16.00
2023-04-22T06:26:09.030Z,16.70
2023-04-22T06:28:38.485Z,17.40
2023-04-22T06:31:11.839Z,18.10
2023-04-22T06:33:40.716Z,18.60
2023-04-22T06:36:09.500Z,19.10
2023-04-22T06:38:40.314Z,19.00
2023-04-22T06:41:41.950Z,19.10
2023-04-22T06:44:31.176Z,19.70
2023-04-22T06:47:24.109Z,19.90
2023-04-22T06:50:10.263Z,20.30
2023-04-22T06:52:46.613Z,20.90
2023-04-22T06:55:16.397Z,21.00
2023-04-22T06:57:44.961Z,21.10
2023-04-22T07:00:13.898Z,21.40
2023-04-22T07:02:42.949Z,21.20
2023-04-22T07:05:11.324Z,21.20
2023-04-22T07:07:40.377Z,21.60
2023-04-22T07:10:11.696Z,21.90
2023-04-22T07:12:47.130Z,22.10
2023-04-22T07:15:15.415Z,22.50
2023-04-22T07:17:43.863Z,22.30
2023-04-22T07:20:12.544Z,22.10
2023-04-22T07:22:40.555Z,22.50
2023-04-22T07:25:09.225Z,22.70
2023-04-22T07:27:37.582Z,22.80
2023-04-22T07:30:08.815Z,23.20
2023-04-22T07:32:37.259Z,23.10
2023-04-22T07:35:05.489Z,23.10
2023-04-22T07:37:33.731Z,23.50
2023-04-22T07:40:01.948Z,23.40
2023-04-22T07:42:30.247Z,23.10
2023-04-22T07:44:58.516Z,23.30
2023-04-22T07:47:27.879Z,23.70
2023-04-22T07:49:55.927Z,23.90
2023-04-22T07:52:23.895Z,24.40
2023-04-22T07:54:52.205Z,23.90
2023-04-22T07:57:21.842Z,23.40
2023-04-22T07:59:50.215Z,23.60
2023-04-22T08:02:18.255Z,23.60
2023-04-22T08:04:47.981Z,23.70
2023-04-22T08:07:30.972Z,23.30
2023-04-22T08:10:00.915Z,23.20
2023-04-22T08:12:28.858Z,22.90
2023-04-22T08:14:58.094Z,22.80
2023-04-22T08:17:26.144Z,23.00
2023-04-22T08:19:55.990Z,23.30
2023-04-22T08:22:24.017Z,22.90
2023-04-22T08:24:52.875Z,23.00
2023-04-22T08:27:22.190Z,23.20
2023-04-22T08:29:50.523Z,23.30
2023-04-22T08:32:19.804Z,23.10
2023-04-22T08:37:20.064Z,23.50
2023-04-22T08:39:48.065Z,23.20
2023-04-22T08:42:16.980Z,23.30
2023-04-22T08:44:46.113Z,23.30
2023-04-22T08:47:15.135Z,23.30
2023-04-22T08:49:43.961Z,23.10
2023-04-22T08:52:15.181Z,23.40
2023-04-22T08:54:44.585Z,24.20
2023-04-22T08:57:13.367Z,24.20
2023-04-22T08:59:42.518Z,24.10
2023-04-22T09:02:14.811Z,24.00
2023-04-22T09:04:43.711Z,23.80
2023-04-22T09:07:12.082Z,23.80
2023-04-22T09:09:40.512Z,24.00
2023-04-22T09:12:10.034Z,24.20
2023-04-22T09:14:38.254Z,24.20
2023-04-22T09:17:06.530Z,24.20
2023-04-22T09:19:34.967Z,24.20
2023-04-22T09:22:03.277Z,24.30
2023-04-22T09:24:31.657Z,24.50
2023-04-22T09:27:02.562Z,24.40
2023-04-22T09:29:32.127Z,24.60
2023-04-22T09:32:01.242Z,24.20
2023-04-22T09:34:29.265Z,24.00
2023-04-22T09:36:57.547Z,24.00
2023-04-22T09:39:25.832Z,24.40
2023-04-22T09:41:56.556Z,24.50
2023-04-22T09:44:28.434Z,24.50
2023-04-22T09:46:58.192Z,24.50
2023-04-22T09:49:28.233Z,24.30
2023-04-22T09:51:57.392Z,24.20
2023-04-22T09:54:25.394Z,24.00
2023-04-22T09:56:54.515Z,23.80
2023-04-22T09:59:23.034Z,24.20
2023-04-22T10:01:53.271Z,24.60
2023-04-22T10:04:23.452Z,24.60
2023-04-22T10:06:52.387Z,24.70
2023-04-22T10:09:21.395Z,24.30
2023-04-22T10:11:49.668Z,24.10
2023-04-22T10:14:18.051Z,24.30
2023-04-22T10:16:48.477Z,24.20
2023-04-22T10:19:18.460Z,24.10
2023-04-22T10:21:48.563Z,24.70
2023-04-22T10:24:18.113Z,24.90
2023-04-22T10:26:51.138Z,25.00
2023-04-22T10:29:20.244Z,25.20
2023-04-22T10:31:52.935Z,24.70
2023-04-22T10:34:21.308Z,24.90
2023-04-22T10:36:57.724Z,24.90
2023-04-22T10:39:26.749Z,24.90
2023-04-22T10:41:57.859Z,24.60
2023-04-22T10:44:29.152Z,24.70
2023-04-22T10:47:01.137Z,24.90
2023-04-22T10:49:33.026Z,24.90
2023-04-22T10:52:04.055Z,24.80
2023-04-22T10:54:51.277Z,24.70
2023-04-22T10:57:22.653Z,24.80
2023-04-22T10:59:53.212Z,24.90
2023-04-22T11:02:22.422Z,24.80
2023-04-22T11:04:52.192Z,25.10
2023-04-22T11:07:34.249Z,24.60
2023-04-22T11:10:05.342Z,24.80
2023-04-22T11:12:43.030Z,25.00
2023-04-22T11:15:12.121Z,25.30
2023-04-22T11:17:40.897Z,25.30
2023-04-22T11:20:09.849Z,25.50
2023-04-22T11:22:39.815Z,25.50
2023-04-22T11:25:10.065Z,25.50
2023-04-22T11:27:38.395Z,25.50
2023-04-22T11:30:08.663Z,25.60
2023-04-22T11:32:37.208Z,25.30
2023-04-22T11:35:06.754Z,25.00
2023-04-22T11:37:42.355Z,25.10
2023-04-22T11:40:25.399Z,24.90
2023-04-22T11:42:58.784Z,24.80
2023-04-22T11:45:27.279Z,24.70
2023-04-22T11:47:56.508Z,24.70
2023-04-22T11:50:26.722Z,25.00
2023-04-22T11:52:57.303Z,25.40
2023-04-22T11:55:27.277Z,25.80
2023-04-22T11:57:56.651Z,25.60
2023-04-22T12:00:25.815Z,25.90
2023-04-22T12:02:58.127Z,26.00
2023-04-22T12:05:36.817Z,25.80
2023-04-22T12:08:08.203Z,25.50
2023-04-22T12:10:40.727Z,25.50
2023-04-22T12:13:09.472Z,25.40
2023-04-22T12:15:43.682Z,25.40
2023-04-22T12:18:13.109Z,25.70
2023-04-22T12:20:42.902Z,25.70
2023-04-22T12:23:17.182Z,25.50
2023-04-22T12:25:45.622Z,25.30
2023-04-22T12:28:14.288Z,25.40
2023-04-22T12:30:42.670Z,25.60
2023-04-22T12:33:10.949Z,25.50
2023-04-22T12:35:39.278Z,25.70
2023-04-22T12:38:07.272Z,25.90
2023-04-22T12:40:36.975Z,26.00
2023-04-22T12:43:06.180Z,26.10
2023-04-22T12:45:35.703Z,26.00
2023-04-22T12:48:03.698Z,25.80
2023-04-22T12:50:31.938Z,25.90
2023-04-22T12:53:02.285Z,25.80
2023-04-22T12:55:31.252Z,25.80
2023-04-22T12:58:00.868Z,25.80
2023-04-22T13:00:31.285Z,26.10
2023-04-22T13:02:59.395Z,25.90
2023-04-22T13:05:27.862Z,25.60
2023-04-22T13:08:06.403Z,25.60
2023-04-22T13:10:35.514Z,25.50
2023-04-22T13:15:37.717Z,26.10
2023-04-22T13:18:06.181Z,25.90
2023-04-22T13:20:34.230Z,25.80
2023-04-22T13:23:04.905Z,25.80
2023-04-22T13:25:33.334Z,25.90
2023-04-22T13:28:01.691Z,25.70
2023-04-22T13:30:31.043Z,25.70
2023-04-22T13:32:59.542Z,25.80
2023-04-22T13:35:28.009Z,26.00
2023-04-22T13:37:56.395Z,25.80
2023-04-22T13:40:26.633Z,26.00
2023-04-22T13:42:54.895Z,26.00
2023-04-22T13:45:23.373Z,26.10
2023-04-22T13:47:54.404Z,26.20
2023-04-22T13:50:23.426Z,26.00
2023-04-22T13:52:52.028Z,25.80
2023-04-22T13:55:20.523Z,25.80
2023-04-22T13:57:49.522Z,25.90
2023-04-22T14:00:18.043Z,25.80
2023-04-22T14:02:46.616Z,25.50
2023-04-22T14:05:16.062Z,25.10
2023-04-22T14:07:44.397Z,24.80
2023-04-22T14:10:13.825Z,24.60
2023-04-22T14:12:42.219Z,24.50
2023-04-22T14:15:11.591Z,24.40
2023-04-22T14:17:40.246Z,24.30
2023-04-22T14:20:11.127Z,24.20
2023-04-22T14:22:40.871Z,24.10
2023-04-22T14:25:09.299Z,24.00
2023-04-22T14:27:37.769Z,23.90
2023-04-22T14:30:06.341Z,23.70
2023-04-22T14:32:35.147Z,23.50
2023-04-22T14:35:03.269Z,23.40
2023-04-22T14:37:32.192Z,23.40
2023-04-22T14:40:01.559Z,23.50
2023-04-22T14:42:29.857Z,23.50
2023-04-22T14:44:58.038Z,23.60
2023-04-22T14:47:26.361Z,23.40
2023-04-22T14:49:54.396Z,23.30
2023-04-22T14:52:22.589Z,23.20
2023-04-22T14:54:51.981Z,23.20
2023-04-22T14:57:21.841Z,23.20
2023-04-22T14:59:49.784Z,23.10
2023-04-22T15:02:18.492Z,22.90
2023-04-22T15:04:46.591Z,22.80
2023-04-22T15:07:15.016Z,22.70
2023-04-22T15:09:43.645Z,22.60
2023-04-22T15:12:11.846Z,22.70
2023-04-22T15:14:41.517Z,22.70
2023-04-22T15:17:09.837Z,22.80
2023-04-22T15:19:38.466Z,22.90
2023-04-22T15:22:06.890Z,22.90
2023-04-22T15:24:35.233Z,22.90
2023-04-22T15:27:03.994Z,22.90
2023-04-22T15:29:32.352Z,22.90
2023-04-22T15:32:02.320Z,23.00
2023-04-22T15:34:30.787Z,23.10
2023-04-22T15:36:59.002Z,23.00
2023-04-22T15:39:27.321Z,22.90
2023-04-22T15:41:55.778Z,22.80
2023-04-22T15:44:24.165Z,22.70
2023-04-22T15:46:53.036Z,22.70
2023-04-22T15:49:22.703Z,22.70
2023-04-22T15:51:51.470Z,22.70
2023-04-22T15:54:19.841Z,22.60
2023-04-22T15:56:48.236Z,22.50
2023-04-22T15:59:16.696Z,22.50
2023-04-22T16:01:46.267Z,22.40
2023-04-22T16:04:15.183Z,22.30
2023-04-22T16:06:44.951Z,22.20
2023-04-22T16:09:13.368Z,22.20
2023-04-22T16:11:41.805Z,22.10
2023-04-22T16:14:11.191Z,22.00
2023-04-22T16:16:40.408Z,22.00
2023-04-22T16:19:08.852Z,22.00
2023-04-22T16:21:37.222Z,21.90
2023-04-22T16:24:07.012Z,21.80
2023-04-22T16:26:34.977Z,21.70
2023-04-22T16:29:03.369Z,21.70
2023-04-22T16:31:31.363Z,21.70
2023-04-22T16:34:00.064Z,21.60
2023-04-22T16:36:28.043Z,21.60
2023-04-22T16:38:56.409Z,21.50
2023-04-22T16:41:25.721Z,21.50
2023-04-22T16:43:54.142Z,21.50
2023-04-22T16:46:22.166Z,21.50
2023-04-22T16:48:50.709Z,21.50
2023-04-22T16:51:18.675Z,21.50
2023-04-22T16:53:47.092Z,21.40
2023-04-22T16:56:15.352Z,21.40
2023-04-22T16:58:45.016Z,21.30
2023-04-22T17:01:13.765Z,21.30
2023-04-22T17:03:42.387Z,21.30
2023-04-22T17:06:10.906Z,21.30
2023-04-22T17:08:39.269Z,21.30
2023-04-22T17:11:07.547Z,21.30
2023-04-22T17:13:35.921Z,21.20
2023-04-22T17:16:06.514Z,21.20
2023-04-22T17:18:34.593Z,21.20
2023-04-22T17:21:03.246Z,21.10
2023-04-22T17:23:31.245Z,21.10
2023-04-22T17:25:59.959Z,21.00
2023-04-22T17:28:28.385Z,20.90
2023-04-22T17:30:56.901Z,20.90
2023-04-22T17:33:26.913Z,20.80
2023-04-22T17:35:55.179Z,20.70
2023-04-22T17:38:23.185Z,20.60
2023-04-22T17:40:51.659Z,20.50
2023-04-22T17:43:19.616Z,20.50
2023-04-22T17:45:47.907Z,20.40
2023-04-22T17:48:15.830Z,20.30
2023-04-22T17:50:45.439Z,20.20
2023-04-22T17:53:13.751Z,20.10
2023-04-22T17:55:42.114Z,20.10
2023-04-22T17:58:10.059Z,20.00
2023-04-22T18:00:38.735Z,19.90
2023-04-22T18:03:07.001Z,19.80
2023-04-22T18:05:35.606Z,19.80
2023-04-22T18:08:05.436Z,19.70
2023-04-22T18:10:33.903Z,19.70
2023-04-22T18:13:02.221Z,19.60
2023-04-22T18:15:30.165Z,19.50
2023-04-22T18:17:58.131Z,19.40
2023-04-22T18:20:26.377Z,19.40
2023-04-22T18:22:56.337Z,19.30
2023-04-22T18:25:26.235Z,19.30
2023-04-22T18:27:55.320Z,19.20
2023-04-22T18:30:24.035Z,19.10
2023-04-22T18:32:52.223Z,19.10
2023-04-22T18:35:20.776Z,19.00
2023-04-22T18:37:49.081Z,18.90
2023-04-22T18:40:18.298Z,18.80
2023-04-22T18:42:47.820Z,18.70
2023-04-22T18:45:16.814Z,18.60
2023-04-22T18:47:46.914Z,18.50
2023-04-22T18:50:15.343Z,18.50
2023-04-22T18:52:43.885Z,18.50
2023-04-22T18:55:12.167Z,18.30
2023-04-22T18:57:41.477Z,18.20
2023-04-22T19:00:13.066Z,18.20
2023-04-22T19:02:45.698Z,18.10
2023-04-22T19:05:14.703Z,18.00
2023-04-22T19:07:44.975Z,17.90
2023-04-22T19:10:13.773Z,17.90
2023-04-22T19:12:41.787Z,17.80
2023-04-22T19:15:11.754Z,17.80
2023-04-22T19:17:40.643Z,17.70
2023-04-22T19:20:09.521Z,17.70
2023-04-22T19:22:37.489Z,17.70
2023-04-22T19:25:06.466Z,17.70
2023-04-22T19:27:34.812Z,17.60
2023-04-22T19:30:03.710Z,17.60
2023-04-22T19:32:33.580Z,17.50
2023-04-22T19:35:04.045Z,17.50
2023-04-22T19:37:34.055Z,17.50
2023-04-22T19:40:02.040Z,17.50
2023-04-22T19:42:30.564Z,17.40
2023-04-22T19:44:59.473Z,17.40
2023-04-22T19:47:27.938Z,17.40
2023-04-22T19:49:58.336Z,17.40
2023-04-22T19:52:27.092Z,17.40
2023-04-22T19:54:58.808Z,17.50
2023-04-22T19:57:27.221Z,17.50
2023-04-22T19:59:55.314Z,17.50
2023-04-22T20:02:24.173Z,17.50
2023-04-22T20:04:52.835Z,17.40
2023-04-22T20:07:22.750Z,17.40
2023-04-22T20:09:51.892Z,17.40
2023-04-22T20:12:20.395Z,17.50
2023-04-22T20:14:48.870Z,17.50
2023-04-22T20:17:17.294Z,17.50
2023-04-22T20:19:45.595Z,17.50
2023-04-22T20:22:16.001Z,17.60
2023-04-22T20:24:45.695Z,17.60
2023-04-22T20:27:14.452Z,17.70
2023-04-22T20:29:43.243Z,17.80
2023-04-22T20:32:12.024Z,17.80
2023-04-22T20:34:40.482Z,17.80
2023-04-22T20:37:12.604Z,17.90
2023-04-22T20:39:41.121Z,17.90
2023-04-22T20:42:12.194Z,17.90
2023-04-22T20:44:40.563Z,17.90
2023-04-22T20:47:09.016Z,17.90
2023-04-22T20:49:40.363Z,17.90
2023-04-22T20:52:09.213Z,17.90
2023-04-22T20:54:37.558Z,17.90
2023-04-22T20:57:06.502Z,17.90
2023-04-22T20:59:36.776Z,17.80
2023-04-22T21:02:06.741Z,17.80
2023-04-22T21:04:35.636Z,17.80
2023-04-22T21:07:07.187Z,17.70
2023-04-22T21:09:35.640Z,17.70
2023-04-22T21:12:04.179Z,17.60
2023-04-22T21:14:32.650Z,17.50
2023-04-22T21:17:04.901Z,17.50
2023-04-22T21:19:34.037Z,17.40
2023-04-22T21:22:05.005Z,17.30
2023-04-22T21:24:35.020Z,17.20
2023-04-22T21:27:03.717Z,17.10
2023-04-22T21:29:32.596Z,17.10
2023-04-22T21:32:09.363Z,17.10
2023-04-22T21:34:38.372Z,17.00
2023-04-22T21:37:07.758Z,17.00
2023-04-22T21:39:36.477Z,17.00
2023-04-22T21:42:08.680Z,16.90
2023-04-22T21:44:38.242Z,16.90
2023-04-22T21:47:08.153Z,16.90
2023-04-22T21:49:36.069Z,16.80
2023-04-22T21:52:04.405Z,16.80
2023-04-22T21:54:32.422Z,16.80
2023-04-22T21:57:01.189Z,16.80
2023-04-22T21:59:29.444Z,16.90
2023-04-22T22:01:57.928Z,16.80
2023-04-22T22:04:27.729Z,16.80
2023-04-22T22:06:56.062Z,16.90
2023-04-22T22:09:24.325Z,16.90
2023-04-22T22:11:52.554Z,16.90
2023-04-22T22:14:20.798Z,16.90
2023-04-22T22:16:49.949Z,16.90
2023-04-22T22:19:18.355Z,16.90
2023-04-22T22:21:48.138Z,16.90
2023-04-22T22:24:16.586Z,16.90
2023-04-22T22:26:45.304Z,16.90
2023-04-22T22:29:15.649Z,16.90
2023-04-22T22:31:44.020Z,16.80
2023-04-22T22:34:12.401Z,16.80
2023-04-22T22:36:40.375Z,16.80
2023-04-22T22:39:12.345Z,16.70
2023-04-22T22:41:42.399Z,16.70
2023-04-22T22:44:12.777Z,16.70
2023-04-22T22:46:41.430Z,16.60
2023-04-22T22:49:10.355Z,16.40
2023-04-22T22:51:38.809Z,16.30
2023-04-22T22:54:07.473Z,16.30
2023-04-22T22:56:37.295Z,16.10
2023-04-22T22:59:05.758Z,16.00
2023-04-22T23:01:34.323Z,15.90
2023-04-22T23:04:02.949Z,15.80
2023-04-22T23:06:31.978Z,15.70
2023-04-22T23:09:00.330Z,15.60
2023-04-22T23:11:28.446Z,15.60
2023-04-22T23:13:58.193Z,15.70
2023-04-22T23:16:27.059Z,15.70
2023-04-22T23:18:56.721Z,15.70
2023-04-22T23:21:25.245Z,15.70
2023-04-22T23:23:53.831Z,15.70
2023-04-22T23:26:22.442Z,15.80
2023-04-22T23:28:51.060Z,15.80
2023-04-22T23:31:24.176Z,15.80
2023-04-22T23:33:53.044Z,15.80
2023-04-22T23:36:22.601Z,15.80
2023-04-22T23:38:50.608Z,15.80
2023-04-22T23:41:19.927Z,15.90
2023-04-22T23:43:48.517Z,15.90
2023-04-22T23:46:18.769Z,15.90
2023-04-22T23:48:48.516Z,15.90
2023-04-22T23:51:17.314Z,15.90
2023-04-22T23:53:45.684Z,15.90
2023-04-22T23:56:14.518Z,15.90
2023-04-22T23:58:42.833Z,16.00
